Time;durP1;ratioP1;P1;durP2;ratioP2;P2;SDS_P1;SDS_P2;PMS_P1;PMS_P2;Temp;Humidity;BMP_temperature;BMP_pressure;BME280_temperature;BME280_humidity;BME280_pressure;Samples;Min_cycle;Max_cycle;Signal;HPM_P1;HPM_P2
2024/02/29 00:02:24;;;;;;;15.10;8.25;;;;;;;;;;5067734;28;20481;-73
2024/02/29 00:04:50;;;;;;;12.30;7.97;;;;;;;;;;5075186;28;20052;-71
2024/02/29 00:07:16;;;;;;;14.38;7.85;;;;;;;;;;5078314;28;20096;-73
2024/02/29 00:09:43;;;;;;;13.85;9.55;;;;;;;;;;5063719;28;20071;-72
2024/02/29 00:12:09;;;;;;;13.15;8.35;;;;;;;;;;5062723;28;20065;-72
2024/02/29 00:14:36;;;;;;;12.43;8.43;;;;;;;;;;5072354;28;20061;-72
2024/02/29 00:17:03;;;;;;;13.07;8.10;;;;;;;;;;5074209;28;20163;-72
2024/02/29 00:19:31;;;;;;;13.95;8.13;;;;;;;;;;5083149;28;20044;-73
2024/02/29 00:21:57;;;;;;;13.65;7.68;;;;;;;;;;5071295;28;20453;-72
2024/02/29 00:24:24;;;;;;;11.15;6.75;;;;;;;;;;5081139;28;20083;-72
2024/02/29 00:26:50;;;;;;;12.02;7.75;;;;;;;;;;5083377;28;20067;-72
2024/02/29 00:29:17;;;;;;;14.45;7.60;;;;;;;;;;5068601;28;20098;-72
2024/02/29 00:31:44;;;;;;;11.88;7.53;;;;;;;;;;5066944;28;20129;-72
2024/02/29 00:34:13;;;;;;;13.23;7.72;;;;;;;;;;5073969;28;20044;-72
2024/02/29 00:36:40;;;;;;;16.88;7.50;;;;;;;;;;5078502;28;20487;-72
2024/02/29 00:39:07;;;;;;;12.07;7.03;;;;;;;;;;5069273;28;20627;-72
2024/02/29 00:41:40;;;;;;;16.48;6.75;;;;;;;;;;5082947;28;20382;-72
2024/02/29 00:44:07;;;;;;;11.93;6.55;;;;;;;;;;5081318;28;20385;-72
2024/02/29 00:46:33;;;;;;;12.60;6.30;;;;;;;;;;5079591;28;20083;-72
2024/02/29 00:48:59;;;;;;;13.52;6.85;;;;;;;;;;5050249;28;20052;-72
2024/02/29 00:51:26;;;;;;;10.45;7.10;;;;;;;;;;5057299;28;20056;-73
2024/02/29 00:53:55;;;;;;;13.07;6.72;;;;;;;;;;5079889;28;20052;-73
2024/02/29 00:56:21;;;;;;;12.88;6.47;;;;;;;;;;5054753;28;20044;-73
2024/02/29 00:58:47;;;;;;;12.13;7.05;;;;;;;;;;5074777;28;20047;-73
2024/02/29 01:01:14;;;;;;;12.48;7.05;;;;;;;;;;5066670;28;20094;-73
2024/02/29 01:03:40;;;;;;;10.88;6.38;;;;;;;;;;5066183;28;20437;-73
2024/02/29 01:06:07;;;;;;;13.10;7.10;;;;;;;;;;5078100;28;20060;-73
2024/02/29 01:08:33;;;;;;;13.85;7.32;;;;;;;;;;5065253;28;20055;-73
2024/02/29 01:11:00;;;;;;;13.73;6.97;;;;;;;;;;5074823;28;20185;-73
2024/02/29 01:13:27;;;;;;;13.73;7.18;;;;;;;;;;5071734;28;20529;-72
2024/02/29 01:15:53;;;;;;;13.27;7.60;;;;;;;;;;5080613;28;20079;-73
2024/02/29 01:18:20;;;;;;;13.95;7.47;;;;;;;;;;5080208;28;20044;-73
2024/02/29 01:20:46;;;;;;;13.52;7.38;;;;;;;;;;5075935;28;20080;-73
2024/02/29 01:23:13;;;;;;;12.30;7.25;;;;;;;;;;5088011;28;20435;-72
2024/02/29 01:25:39;;;;;;;14.00;7.40;;;;;;;;;;5053797;28;20047;-71
2024/02/29 01:28:06;;;;;;;15.23;8.02;;;;;;;;;;5066423;28;20041;-73
2024/02/29 01:30:33;;;;;;;12.90;6.78;;;;;;;;;;5080177;28;20055;-73
2024/02/29 01:32:59;;;;;;;14.65;7.15;;;;;;;;;;5066191;28;20477;-72
2024/02/29 01:35:26;;;;;;;16.23;7.68;;;;;;;;;;5085209;28;20055;-72
2024/02/29 01:37:53;;;;;;;16.33;7.25;;;;;;;;;;5080554;28;20083;-72
2024/02/29 01:40:19;;;;;;;13.55;7.32;;;;;;;;;;5071179;28;20047;-72
2024/02/29 01:42:46;;;;;;;13.45;6.85;;;;;;;;;;5079202;28;20548;-72
2024/02/29 01:45:13;;;;;;;12.38;7.05;;;;;;;;;;5048050;28;20048;-73
2024/02/29 01:47:39;;;;;;;14.00;7.35;;;;;;;;;;5077623;28;20056;-73
2024/02/29 01:50:07;;;;;;;17.45;8.40;;;;;;;;;;5075448;28;20063;-73
2024/02/29 01:52:36;;;;;;;13.37;7.70;;;;;;;;;;5075253;28;20131;-72
2024/02/29 01:55:03;;;;;;;16.27;7.97;;;;;;;;;;5077251;28;20293;-73
2024/02/29 01:57:30;;;;;;;16.98;7.65;;;;;;;;;;5079457;28;20095;-72
2024/02/29 01:59:56;;;;;;;17.25;8.18;;;;;;;;;;5065871;28;20059;-73
2024/02/29 02:02:23;;;;;;;18.80;7.95;;;;;;;;;;5074969;28;20139;-72
2024/02/29 02:04:49;;;;;;;14.80;7.70;;;;;;;;;;5073736;28;20048;-72
2024/02/29 02:07:15;;;;;;;15.07;8.00;;;;;;;;;;5082729;28;20105;-73
2024/02/29 02:09:42;;;;;;;14.38;8.45;;;;;;;;;;5074384;28;20047;-72
2024/02/29 02:12:10;;;;;;;15.93;7.72;;;;;;;;;;5076474;28;20060;-72
2024/02/29 02:14:38;;;;;;;13.90;8.05;;;;;;;;;;5076202;28;20084;-72
2024/02/29 02:17:09;;;;;;;17.77;7.78;;;;;;;;;;5086632;28;20040;-72
2024/02/29 02:19:36;;;;;;;15.00;8.43;;;;;;;;;;5085185;28;20116;-72
2024/02/29 02:22:04;;;;;;;17.15;9.00;;;;;;;;;;5081233;28;20055;-72
2024/02/29 02:24:34;;;;;;;16.92;8.93;;;;;;;;;;5079196;28;20071;-72
2024/02/29 02:27:00;;;;;;;18.35;8.93;;;;;;;;;;5078434;28;20468;-72
2024/02/29 02:29:27;;;;;;;18.17;8.68;;;;;;;;;;5067906;28;20102;-73
2024/02/29 02:31:56;;;;;;;15.88;8.73;;;;;;;;;;5067873;28;20078;-72
2024/02/29 02:34:22;;;;;;;19.33;8.95;;;;;;;;;;5084538;28;20086;-72
2024/02/29 02:36:49;;;;;;;17.45;8.35;;;;;;;;;;5073860;28;20048;-73
2024/02/29 02:39:15;;;;;;;16.25;7.65;;;;;;;;;;5072884;28;20050;-72
2024/02/29 02:41:44;;;;;;;15.63;9.30;;;;;;;;;;5084659;28;20044;-72
2024/02/29 02:44:12;;;;;;;18.33;9.25;;;;;;;;;;5052577;28;20070;-73
2024/02/29 02:46:38;;;;;;;17.92;9.25;;;;;;;;;;5070571;28;20062;-73
2024/02/29 02:49:04;;;;;;;15.80;8.40;;;;;;;;;;5074393;28;20127;-73
2024/02/29 02:51:31;;;;;;;14.63;8.63;;;;;;;;;;5071253;28;20055;-73
2024/02/29 02:53:57;;;;;;;14.95;8.70;;;;;;;;;;5056071;28;20056;-73
2024/02/29 02:56:24;;;;;;;19.85;9.25;;;;;;;;;;5071997;28;20742;-73
2024/02/29 02:58:50;;;;;;;20.27;9.13;;;;;;;;;;5070480;28;20624;-73
2024/02/29 03:01:17;;;;;;;19.98;8.57;;;;;;;;;;5074285;28;20046;-72
2024/02/29 03:03:43;;;;;;;15.68;8.20;;;;;;;;;;5070863;28;20424;-72
2024/02/29 03:06:12;;;;;;;15.00;8.48;;;;;;;;;;5055104;28;20103;-73
2024/02/29 03:08:40;;;;;;;;;;;;;;;;;;5067181;28;20057;-73
2024/02/29 03:11:06;;;;;;;17.03;8.60;;;;;;;;;;5065265;28;19924;-73
2024/02/29 03:13:33;;;;;;;17.73;9.40;;;;;;;;;;5064088;28;20768;-73
2024/02/29 03:15:59;;;;;;;17.10;8.27;;;;;;;;;;5081474;28;20125;-73
2024/02/29 03:18:26;;;;;;;20.08;8.70;;;;;;;;;;5079016;28;20659;-73
2024/02/29 03:20:52;;;;;;;16.60;8.85;;;;;;;;;;5079369;28;20052;-73
2024/02/29 03:23:20;;;;;;;17.48;9.40;;;;;;;;;;5078656;28;20044;-72
2024/02/29 03:25:46;;;;;;;15.50;9.07;;;;;;;;;;5065188;28;20055;-73
2024/02/29 03:28:13;;;;;;;20.25;9.02;;;;;;;;;;5075077;28;20056;-73
2024/02/29 03:30:40;;;;;;;17.02;9.63;;;;;;;;;;5059049;28;20052;-69
2024/02/29 03:33:07;;;;;;;17.48;8.65;;;;;;;;;;5077934;28;20143;-70
2024/02/29 03:35:33;;;;;;;18.52;9.82;;;;;;;;;;5077164;28;20072;-70
2024/02/29 03:38:00;;;;;;;14.70;8.40;;;;;;;;;;5070873;28;20080;-70
2024/02/29 03:40:27;;;;;;;16.17;9.13;;;;;;;;;;5057264;28;20407;-70
2024/02/29 03:42:53;;;;;;;20.95;9.68;;;;;;;;;;5067183;28;20159;-71
2024/02/29 03:45:19;;;;;;;17.92;9.52;;;;;;;;;;5077014;28;20059;-70
2024/02/29 03:47:46;;;;;;;19.48;9.88;;;;;;;;;;5068152;28;20040;-70
2024/02/29 03:50:13;;;;;;;19.05;8.63;;;;;;;;;;5064990;28;20133;-70
2024/02/29 03:52:39;;;;;;;16.20;8.50;;;;;;;;;;5056962;28;20049;-70
2024/02/29 03:55:06;;;;;;;16.88;9.38;;;;;;;;;;5074103;28;20059;-71
2024/02/29 03:57:33;;;;;;;20.80;9.45;;;;;;;;;;5081188;28;20060;-71
2024/02/29 03:59:59;;;;;;;17.45;8.95;;;;;;;;;;5070319;28;20044;-70
2024/02/29 04:02:26;;;;;;;15.32;9.30;;;;;;;;;;5067398;28;20044;-70
2024/02/29 04:04:52;;;;;;;20.52;9.80;;;;;;;;;;5082092;28;20498;-70
2024/02/29 04:07:18;;;;;;;17.15;9.70;;;;;;;;;;5083856;28;20048;-70
2024/02/29 04:09:45;;;;;;;17.25;9.30;;;;;;;;;;5086728;28;20036;-70
2024/02/29 04:12:11;;;;;;;17.08;9.68;;;;;;;;;;5087667;28;20641;-70
2024/02/29 04:14:38;;;;;;;16.60;8.68;;;;;;;;;;5089239;28;20058;-70
2024/02/29 04:17:05;;;;;;;16.88;9.60;;;;;;;;;;5075009;28;20148;-73
2024/02/29 04:19:31;;;;;;;20.52;8.70;;;;;;;;;;5075610;28;20048;-71
2024/02/29 04:21:57;;;;;;;16.20;8.65;;;;;;;;;;5054742;28;20473;-70
2024/02/29 04:24:24;;;;;;;18.38;9.65;;;;;;;;;;5073450;28;20388;-70
2024/02/29 04:26:50;;;;;;;16.00;8.27;;;;;;;;;;5073757;28;20048;-70
2024/02/29 04:29:16;;;;;;;16.52;8.65;;;;;;;;;;5073975;28;20068;-70
2024/02/29 04:31:47;;;;;;;17.95;8.90;;;;;;;;;;5070694;28;20044;-70
2024/02/29 04:34:13;;;;;;;17.23;9.43;;;;;;;;;;5085467;28;20080;-70
2024/02/29 04:36:40;;;;;;;15.77;9.00;;;;;;;;;;5082530;28;20097;-70
2024/02/29 04:39:06;;;;;;;15.00;9.10;;;;;;;;;;5074597;28;20043;-71
2024/02/29 04:41:33;;;;;;;14.40;7.63;;;;;;;;;;5071670;28;20094;-73
2024/02/29 04:43:59;;;;;;;20.48;8.98;;;;;;;;;;5076189;28;20053;-74
2024/02/29 04:46:25;;;;;;;18.92;9.40;;;;;;;;;;5081307;28;20399;-73
2024/02/29 04:48:52;;;;;;;15.40;8.90;;;;;;;;;;5083764;28;20071;-74
2024/02/29 04:51:18;;;;;;;17.08;9.75;;;;;;;;;;5071044;28;20126;-73
2024/02/29 04:53:44;;;;;;;15.77;9.50;;;;;;;;;;5043883;28;20056;-73
2024/02/29 04:56:11;;;;;;;17.40;9.18;;;;;;;;;;5073200;28;20082;-73
2024/02/29 04:58:37;;;;;;;16.98;9.23;;;;;;;;;;5079839;28;20119;-73
2024/02/29 05:01:04;;;;;;;18.27;9.68;;;;;;;;;;5056404;28;20079;-73
2024/02/29 05:03:30;;;;;;;17.77;9.05;;;;;;;;;;5075983;28;20052;-74
2024/02/29 05:05:57;;;;;;;15.07;9.10;;;;;;;;;;5062843;28;20660;-74
2024/02/29 05:08:23;;;;;;;16.05;9.50;;;;;;;;;;5074209;28;20052;-74
2024/02/29 05:10:50;;;;;;;16.15;8.68;;;;;;;;;;5080118;28;20052;-73
2024/02/29 05:13:18;;;;;;;16.90;8.90;;;;;;;;;;5075655;28;20041;-73
2024/02/29 05:15:44;;;;;;;15.50;9.07;;;;;;;;;;5074139;28;20072;-73
2024/02/29 05:18:11;;;;;;;20.48;9.52;;;;;;;;;;5054842;28;20047;-73
2024/02/29 05:20:37;;;;;;;16.30;8.68;;;;;;;;;;5082996;28;20040;-73
2024/02/29 05:23:04;;;;;;;16.45;9.05;;;;;;;;;;5078446;28;20129;-73
2024/02/29 05:25:30;;;;;;;16.70;9.15;;;;;;;;;;5084187;28;20445;-74
2024/02/29 05:27:56;;;;;;;15.13;8.93;;;;;;;;;;5065005;28;20048;-73
2024/02/29 05:30:25;;;;;;;15.57;9.57;;;;;;;;;;5055608;28;20205;-72
2024/02/29 05:32:51;;;;;;;20.08;9.77;;;;;;;;;;5074763;28;20420;-73
2024/02/29 05:35:18;;;;;;;16.88;9.50;;;;;;;;;;5071299;28;20489;-72
2024/02/29 05:37:44;;;;;;;17.55;9.73;;;;;;;;;;5082202;28;20126;-73
2024/02/29 05:40:12;;;;;;;19.25;9.70;;;;;;;;;;5064888;28;20469;-73
2024/02/29 05:42:39;;;;;;;14.18;9.15;;;;;;;;;;5063573;28;20071;-72
2024/02/29 05:45:06;;;;;;;17.63;9.90;;;;;;;;;;5079225;28;20052;-72
2024/02/29 05:47:32;;;;;;;20.33;9.73;;;;;;;;;;5041806;28;20084;-73
2024/02/29 05:49:59;;;;;;;18.70;9.43;;;;;;;;;;5071475;28;20370;-73
2024/02/29 05:52:25;;;;;;;16.23;9.45;;;;;;;;;;5076717;28;20807;-71
2024/02/29 05:54:51;;;;;;;16.30;9.77;;;;;;;;;;5061596;28;20178;-69
2024/02/29 05:57:18;;;;;;;16.50;9.18;;;;;;;;;;5075802;28;20040;-69
2024/02/29 05:59:44;;;;;;;21.95;9.18;;;;;;;;;;5070245;28;20032;-69
2024/02/29 06:02:10;;;;;;;16.88;9.40;;;;;;;;;;5078403;28;20074;-70
2024/02/29 06:04:37;;;;;;;17.60;9.02;;;;;;;;;;5087048;28;20536;-71
2024/02/29 06:07:04;;;;;;;14.93;8.75;;;;;;;;;;5096880;28;20503;-69
2024/02/29 06:09:30;;;;;;;20.38;10.15;;;;;;;;;;5076264;28;20101;-69
2024/02/29 06:11:57;;;;;;;17.48;8.70;;;;;;;;;;5085363;28;20044;-70
2024/02/29 06:14:24;;;;;;;17.42;9.00;;;;;;;;;;5065532;28;20127;-70
2024/02/29 06:16:51;;;;;;;16.23;9.25;;;;;;;;;;5074268;28;20063;-70
2024/02/29 06:19:17;;;;;;;13.98;8.05;;;;;;;;;;5087468;28;20044;-70
2024/02/29 06:21:43;;;;;;;16.20;9.02;;;;;;;;;;5067884;28;20668;-70
2024/02/29 06:24:10;;;;;;;16.98;8.73;;;;;;;;;;5075995;28;20428;-68
2024/02/29 06:26:36;;;;;;;21.10;8.88;;;;;;;;;;5082807;28;20056;-69
2024/02/29 06:29:03;;;;;;;15.35;8.55;;;;;;;;;;5063293;28;20071;-69
2024/02/29 06:31:29;;;;;;;19.65;9.52;;;;;;;;;;5071901;28;20102;-70
2024/02/29 06:33:57;;;;;;;17.48;9.30;;;;;;;;;;5054193;28;20091;-71
2024/02/29 06:36:24;;;;;;;14.95;7.70;;;;;;;;;;5078479;28;20098;-69
2024/02/29 06:38:51;;;;;;;14.32;8.32;;;;;;;;;;5061067;28;20136;-70
2024/02/29 06:41:17;;;;;;;15.15;8.85;;;;;;;;;;5080617;28;20740;-69
2024/02/29 06:43:43;;;;;;;15.98;8.27;;;;;;;;;;5075998;28;20056;-69
2024/02/29 06:46:10;;;;;;;14.35;8.20;;;;;;;;;;5075418;28;20044;-69
2024/02/29 06:48:37;;;;;;;15.82;8.60;;;;;;;;;;5075640;28;20097;-70
2024/02/29 06:51:03;;;;;;;14.13;7.88;;;;;;;;;;5067143;28;20045;-69
2024/02/29 06:53:30;;;;;;;17.50;8.77;;;;;;;;;;5073210;28;20055;-70
2024/02/29 06:55:57;;;;;;;14.57;7.78;;;;;;;;;;5066789;28;20079;-69
2024/02/29 06:58:23;;;;;;;13.23;7.90;;;;;;;;;;5075491;28;20135;-70
2024/02/29 07:00:50;;;;;;;14.43;8.07;;;;;;;;;;5075213;28;20051;-73
2024/02/29 07:03:16;;;;;;;18.52;8.73;;;;;;;;;;5078050;28;20082;-73
2024/02/29 07:05:43;;;;;;;19.88;9.52;;;;;;;;;;5077866;28;20400;-72
2024/02/29 07:08:12;;;;;;;13.75;8.10;;;;;;;;;;5053745;28;20782;-73
2024/02/29 07:10:40;;;;;;;14.23;8.07;;;;;;;;;;5076391;28;20303;-72
2024/02/29 07:13:06;;;;;;;15.68;8.15;;;;;;;;;;5086173;28;20354;-72
2024/02/29 07:15:33;;;;;;;16.35;8.48;;;;;;;;;;5064340;28;20041;-73
2024/02/29 07:18:01;;;;;;;15.60;8.43;;;;;;;;;;5081887;28;20110;-72
2024/02/29 07:20:27;;;;;;;14.55;8.25;;;;;;;;;;5058146;28;20078;-72
2024/02/29 07:22:55;;;;;;;18.00;9.52;;;;;;;;;;5080363;28;20403;-72
2024/02/29 07:25:22;;;;;;;17.87;8.13;;;;;;;;;;5081580;28;20488;-72
2024/02/29 07:27:49;;;;;;;15.80;8.43;;;;;;;;;;5078831;28;20052;-72
2024/02/29 07:30:15;;;;;;;14.18;8.25;;;;;;;;;;5080528;28;20827;-72
2024/02/29 07:32:42;;;;;;;15.45;8.25;;;;;;;;;;5051330;28;20110;-72
2024/02/29 07:35:11;;;;;;;14.63;8.27;;;;;;;;;;5048790;28;20044;-72
2024/02/29 07:37:38;;;;;;;15.25;8.82;;;;;;;;;;5071773;28;20056;-72
2024/02/29 07:40:06;;;;;;;15.50;8.07;;;;;;;;;;5054831;28;20044;-73
2024/02/29 07:42:33;;;;;;;20.80;9.20;;;;;;;;;;5094765;28;20125;-72
2024/02/29 07:44:59;;;;;;;14.80;8.30;;;;;;;;;;5069291;28;20086;-73
2024/02/29 07:47:26;;;;;;;15.65;8.32;;;;;;;;;;5055295;28;20045;-73
2024/02/29 07:49:52;;;;;;;15.18;7.88;;;;;;;;;;5079756;28;20048;-73
2024/02/29 07:52:19;;;;;;;16.63;8.20;;;;;;;;;;5082030;28;20040;-72
2024/02/29 07:54:45;;;;;;;15.98;8.38;;;;;;;;;;5076492;28;20056;-73
2024/02/29 07:57:12;;;;;;;12.07;7.20;;;;;;;;;;5073470;28;20421;-73
2024/02/29 07:59:38;;;;;;;15.52;8.25;;;;;;;;;;5081714;28;20055;-72
2024/02/29 08:02:05;;;;;;;16.33;8.63;;;;;;;;;;5073153;28;20104;-72
2024/02/29 08:04:32;;;;;;;15.77;7.75;;;;;;;;;;5074628;28;20036;-73
2024/02/29 08:06:59;;;;;;;16.95;8.82;;;;;;;;;;5087482;28;20044;-73
2024/02/29 08:09:25;;;;;;;15.43;7.90;;;;;;;;;;5070193;28;20064;-72
2024/02/29 08:11:51;;;;;;;15.32;8.18;;;;;;;;;;5070631;28;20149;-70
2024/02/29 08:14:18;;;;;;;16.42;8.00;;;;;;;;;;5074085;28;20051;-69
2024/02/29 08:16:46;;;;;;;16.23;8.23;;;;;;;;;;5075611;28;20041;-71
2024/02/29 08:19:12;;;;;;;13.25;6.93;;;;;;;;;;5075492;28;20075;-69
2024/02/29 08:21:39;;;;;;;15.38;7.38;;;;;;;;;;5055228;28;20135;-73
2024/02/29 08:24:06;;;;;;;16.58;7.78;;;;;;;;;;5089005;28;20777;-73
2024/02/29 08:26:32;;;;;;;16.17;8.80;;;;;;;;;;5074169;28;20052;-73
2024/02/29 08:28:59;;;;;;;14.85;8.00;;;;;;;;;;5077820;28;20045;-73
2024/02/29 08:31:26;;;;;;;12.63;7.32;;;;;;;;;;5046511;28;20051;-72
2024/02/29 08:33:52;;;;;;;16.95;9.27;;;;;;;;;;5073047;28;20048;-72
2024/02/29 08:36:20;;;;;;;13.85;7.68;;;;;;;;;;5067124;28;20496;-72
2024/02/29 08:38:47;;;;;;;14.20;8.32;;;;;;;;;;5070806;28;20139;-72
2024/02/29 08:41:13;;;;;;;13.55;7.78;;;;;;;;;;5083454;28;20780;-72
2024/02/29 08:43:43;;;;;;;15.07;8.80;;;;;;;;;;5060963;28;20062;-72
2024/02/29 08:46:10;;;;;;;15.85;7.82;;;;;;;;;;5064302;28;20076;-72
2024/02/29 08:48:37;;;;;;;14.52;8.25;;;;;;;;;;5075039;28;20048;-73
2024/02/29 08:51:03;;;;;;;14.82;7.43;;;;;;;;;;5075248;28;20385;-72
2024/02/29 08:53:30;;;;;;;13.60;7.85;;;;;;;;;;5084182;28;20056;-73
2024/02/29 08:55:56;;;;;;;14.15;7.53;;;;;;;;;;5071727;28;20133;-72
2024/02/29 08:58:23;;;;;;;11.88;7.65;;;;;;;;;;5074207;28;20222;-73
2024/02/29 09:00:49;;;;;;;14.38;7.78;;;;;;;;;;5072819;28;20386;-72
2024/02/29 09:03:16;;;;;;;15.85;8.20;;;;;;;;;;5087336;28;20048;-73
2024/02/29 09:05:43;;;;;;;13.68;7.55;;;;;;;;;;5065257;28;20484;-72
2024/02/29 09:08:09;;;;;;;13.82;8.52;;;;;;;;;;5099123;27;20044;-72
2024/02/29 09:10:36;;;;;;;12.52;7.38;;;;;;;;;;5085296;28;20047;-72
2024/02/29 09:13:05;;;;;;;11.48;7.40;;;;;;;;;;5071804;28;20044;-72
2024/02/29 09:15:52;;;;;;;16.58;7.93;;;;;;;;;;5075551;28;20048;-73
2024/02/29 09:18:18;;;;;;;13.30;7.55;;;;;;;;;;5085320;28;20048;-73
2024/02/29 09:20:45;;;;;;;15.68;8.20;;;;;;;;;;5055150;28;20046;-73
2024/02/29 09:23:11;;;;;;;13.55;8.15;;;;;;;;;;5053059;28;20059;-72
2024/02/29 09:25:38;;;;;;;13.90;7.38;;;;;;;;;;5072745;28;20053;-72
2024/02/29 09:28:04;;;;;;;13.77;7.60;;;;;;;;;;5083311;28;20059;-72
2024/02/29 09:30:31;;;;;;;17.23;7.97;;;;;;;;;;5067166;28;20057;-73
2024/02/29 09:32:57;;;;;;;14.45;7.97;;;;;;;;;;5062313;28;20778;-72
2024/02/29 09:35:24;;;;;;;14.02;8.43;;;;;;;;;;5085539;28;20055;-74
2024/02/29 09:37:51;;;;;;;11.23;7.27;;;;;;;;;;5071680;28;20125;-74
2024/02/29 09:40:20;;;;;;;14.27;7.65;;;;;;;;;;5080870;28;20047;-73
2024/02/29 09:42:47;;;;;;;14.25;7.88;;;;;;;;;;5070683;28;20060;-74
2024/02/29 09:45:14;;;;;;;13.85;8.50;;;;;;;;;;5084204;28;20044;-74
2024/02/29 09:47:41;;;;;;;15.07;7.65;;;;;;;;;;5074209;28;20076;-73
2024/02/29 09:50:08;;;;;;;15.30;7.95;;;;;;;;;;5053929;28;20045;-73
2024/02/29 09:52:40;;;;;;;15.20;7.47;;;;;;;;;;5071881;28;20159;-73
2024/02/29 09:55:12;;;;;;;13.45;7.90;;;;;;;;;;5070596;28;20121;-73
2024/02/29 09:57:39;;;;;;;15.68;8.10;;;;;;;;;;5091568;28;20666;-74
2024/02/29 10:00:07;;;;;;;16.30;8.10;;;;;;;;;;5047727;28;20658;-73
2024/02/29 10:02:33;;;;;;;14.15;8.40;;;;;;;;;;5077035;28;20424;-74
2024/02/29 10:05:00;;;;;;;14.43;7.25;;;;;;;;;;5072435;28;20106;-74
2024/02/29 10:07:26;;;;;;;14.90;7.22;;;;;;;;;;5071179;28;20064;-73
2024/02/29 10:09:54;;;;;;;13.00;6.95;;;;;;;;;;5074771;28;20557;-70
2024/02/29 10:12:21;;;;;;;15.93;7.37;;;;;;;;;;5069232;28;20151;-70
2024/02/29 10:14:57;;;;;;;15.13;7.40;;;;;;;;;;5075934;28;20052;-70
2024/02/29 10:17:24;;;;;;;14.85;7.85;;;;;;;;;;5073236;28;20131;-70
2024/02/29 10:19:52;;;;;;;12.45;7.65;;;;;;;;;;5070665;28;20052;-70
2024/02/29 10:22:21;;;;;;;13.20;7.13;;;;;;;;;;5071559;28;20075;-69
2024/02/29 10:24:51;;;;;;;13.82;7.30;;;;;;;;;;5052916;28;20083;-70
2024/02/29 10:27:18;;;;;;;11.60;7.22;;;;;;;;;;5077248;28;20474;-70
2024/02/29 10:29:44;;;;;;;14.18;6.97;;;;;;;;;;5079990;28;20048;-70
2024/02/29 10:32:11;;;;;;;15.23;7.80;;;;;;;;;;5076854;28;20064;-70
2024/02/29 10:34:37;;;;;;;11.05;7.03;;;;;;;;;;5075091;28;20057;-71
2024/02/29 10:37:06;;;;;;;;;;;;;;;;;;5064969;28;20067;-71
2024/02/29 10:39:34;;;;;;;11.70;7.30;;;;;;;;;;5072199;28;19920;-70
2024/02/29 10:42:02;;;;;;;14.10;7.80;;;;;;;;;;5054507;28;20055;-70
2024/02/29 10:44:30;;;;;;;10.55;7.18;;;;;;;;;;5084523;28;20055;-70
2024/02/29 10:47:02;;;;;;;12.75;6.78;;;;;;;;;;5085100;28;20135;-70
2024/02/29 10:49:40;;;;;;;14.23;7.60;;;;;;;;;;5075535;28;20048;-70
2024/02/29 10:52:13;;;;;;;13.15;7.15;;;;;;;;;;5063310;28;20051;-70
2024/02/29 10:54:47;;;;;;;11.48;7.20;;;;;;;;;;5066424;28;20079;-70
2024/02/29 10:57:14;;;;;;;12.77;7.13;;;;;;;;;;5072957;28;20106;-70
2024/02/29 10:59:41;;;;;;;11.20;6.32;;;;;;;;;;5059407;28;20056;-70
2024/02/29 11:02:08;;;;;;;19.13;6.85;;;;;;;;;;5074254;28;20084;-70
2024/02/29 11:04:35;;;;;;;12.73;7.35;;;;;;;;;;5082807;28;20055;-70
2024/02/29 11:07:01;;;;;;;12.80;6.85;;;;;;;;;;5060613;28;20506;-70
2024/02/29 11:09:31;;;;;;;12.68;7.25;;;;;;;;;;5079657;28;20082;-71
2024/02/29 11:12:11;;;;;;;11.77;7.05;;;;;;;;;;5077648;28;20052;-70
2024/02/29 11:14:37;;;;;;;12.50;6.60;;;;;;;;;;5080213;28;20398;-70
2024/02/29 11:17:04;;;;;;;11.95;7.22;;;;;;;;;;5071286;28;20529;-70
2024/02/29 11:19:31;;;;;;;12.98;7.57;;;;;;;;;;5061578;28;20040;-70
2024/02/29 11:22:13;;;;;;;14.05;7.93;;;;;;;;;;5078892;28;20131;-70
2024/02/29 11:24:42;;;;;;;13.60;6.93;;;;;;;;;;5079207;28;20036;-70
2024/02/29 11:27:10;;;;;;;13.02;7.65;;;;;;;;;;5081691;28;20048;-70
2024/02/29 11:29:36;;;;;;;10.82;6.60;;;;;;;;;;5079477;28;20097;-71
2024/02/29 11:32:04;;;;;;;14.48;6.32;;;;;;;;;;5079633;28;20117;-70
2024/02/29 11:34:32;;;;;;;10.85;6.65;;;;;;;;;;5059953;28;20419;-71
2024/02/29 11:37:03;;;;;;;13.55;6.43;;;;;;;;;;5083673;28;20052;-70
2024/02/29 11:39:30;;;;;;;12.65;6.93;;;;;;;;;;5070955;28;20040;-70
2024/02/29 11:42:06;;;;;;;11.05;6.53;;;;;;;;;;5075633;28;20048;-70
2024/02/29 11:44:36;;;;;;;10.93;6.55;;;;;;;;;;5077112;28;20399;-70
2024/02/29 11:47:02;;;;;;;14.73;7.00;;;;;;;;;;5066895;28;20047;-70
2024/02/29 11:49:29;;;;;;;10.68;7.13;;;;;;;;;;5080334;28;20113;-70
2024/02/29 11:51:56;;;;;;;12.88;6.28;;;;;;;;;;5080905;28;20488;-70
2024/02/29 11:54:22;;;;;;;10.77;6.55;;;;;;;;;;5073207;28;20557;-70
2024/02/29 11:56:53;;;;;;;10.05;6.60;;;;;;;;;;5070600;28;20052;-70
2024/02/29 11:59:20;;;;;;;11.27;6.22;;;;;;;;;;5073482;28;20128;-70
2024/02/29 12:01:47;;;;;;;12.38;6.32;;;;;;;;;;5073126;28;20644;-70
2024/02/29 12:04:15;;;;;;;10.37;6.23;;;;;;;;;;5075854;27;20139;-70
2024/02/29 12:06:44;;;;;;;11.90;6.05;;;;;;;;;;5065724;28;20468;-70
2024/02/29 12:09:12;;;;;;;11.05;6.03;;;;;;;;;;5082737;28;20097;-70
2024/02/29 12:11:39;;;;;;;11.95;6.57;;;;;;;;;;5065413;28;20053;-71
2024/02/29 12:14:07;;;;;;;11.10;6.57;;;;;;;;;;5065978;28;20051;-70
2024/02/29 12:16:34;;;;;;;11.63;6.20;;;;;;;;;;5056449;28;20052;-70
2024/02/29 12:19:01;;;;;;;12.55;6.78;;;;;;;;;;5075908;28;20167;-70
2024/02/29 12:21:28;;;;;;;10.40;5.90;;;;;;;;;;5075124;28;20385;-70
2024/02/29 12:23:55;;;;;;;9.32;5.88;;;;;;;;;;5066163;28;20049;-70
2024/02/29 12:26:21;;;;;;;11.18;6.50;;;;;;;;;;5087410;28;20060;-70
2024/02/29 12:28:48;;;;;;;9.65;5.78;;;;;;;;;;5075825;28;20052;-70
2024/02/29 12:31:14;;;;;;;10.13;6.13;;;;;;;;;;5077938;28;20491;-70
2024/02/29 12:33:41;;;;;;;12.88;6.30;;;;;;;;;;5085023;28;20043;-71
2024/02/29 12:36:10;;;;;;;12.05;6.15;;;;;;;;;;5083607;28;20117;-70
2024/02/29 12:38:37;;;;;;;;;;;;;;;;;;5085047;28;20047;-70
2024/02/29 12:41:05;;;;;;;10.13;6.15;;;;;;;;;;5085040;28;19928;-71
2024/02/29 12:43:32;;;;;;;10.27;5.90;;;;;;;;;;5070402;28;20140;-71
2024/02/29 12:45:58;;;;;;;10.75;5.97;;;;;;;;;;5076662;28;20485;-71
2024/02/29 12:48:25;;;;;;;9.93;6.00;;;;;;;;;;5083431;28;20655;-71
2024/02/29 12:50:51;;;;;;;10.32;6.60;;;;;;;;;;5082290;28;20164;-71
2024/02/29 12:53:18;;;;;;;9.40;6.07;;;;;;;;;;5062311;28;20068;-70
2024/02/29 12:55:44;;;;;;;11.45;6.32;;;;;;;;;;5079914;28;20484;-71
2024/02/29 12:58:12;;;;;;;10.43;6.10;;;;;;;;;;5077268;28;20086;-70
2024/02/29 13:00:38;;;;;;;13.20;7.38;;;;;;;;;;5069041;28;20049;-71
2024/02/29 13:03:05;;;;;;;13.73;6.93;;;;;;;;;;5087326;28;20506;-70
2024/02/29 13:05:34;;;;;;;9.93;6.25;;;;;;;;;;5081123;28;20056;-70
2024/02/29 13:08:02;;;;;;;9.70;6.15;;;;;;;;;;5084208;28;20071;-71
2024/02/29 13:10:29;;;;;;;;;;;;;;;;;;5065732;28;20105;-71
2024/02/29 13:12:55;;;;;;;10.15;5.80;;;;;;;;;;5075443;28;20006;-71
2024/02/29 13:15:31;;;;;;;10.27;6.53;;;;;;;;;;5078702;28;20161;-69
2024/02/29 13:17:57;;;;;;;7.90;5.15;;;;;;;;;;5077794;28;20087;-71
2024/02/29 13:20:24;;;;;;;9.40;5.15;;;;;;;;;;5086538;28;20044;-71
2024/02/29 13:22:50;;;;;;;8.35;5.80;;;;;;;;;;5070587;28;20048;-71
2024/02/29 13:25:17;;;;;;;8.05;5.15;;;;;;;;;;5071508;28;20048;-71
2024/02/29 13:27:43;;;;;;;10.50;6.05;;;;;;;;;;5056857;28;20044;-72
2024/02/29 13:30:10;;;;;;;23.45;15.93;;;;;;;;;;5071889;28;20075;-73
2024/02/29 13:32:37;;;;;;;13.98;6.85;;;;;;;;;;5075264;28;20500;-72
2024/02/29 13:35:05;;;;;;;8.05;5.60;;;;;;;;;;5071947;28;20048;-70
2024/02/29 13:37:31;;;;;;;10.88;6.65;;;;;;;;;;5083595;28;20439;-72
2024/02/29 13:39:58;;;;;;;12.10;5.70;;;;;;;;;;5073558;28;20047;-70
2024/02/29 13:42:24;;;;;;;9.45;5.60;;;;;;;;;;5065546;28;20180;-72
2024/02/29 13:44:50;;;;;;;10.15;6.40;;;;;;;;;;5069258;28;20137;-71
2024/02/29 13:47:17;;;;;;;9.55;5.78;;;;;;;;;;5072844;28;20076;-70
2024/02/29 13:49:43;;;;;;;11.23;6.13;;;;;;;;;;5074186;28;20178;-70
2024/02/29 13:52:16;;;;;;;10.07;6.57;;;;;;;;;;5067824;28;20076;-71
2024/02/29 13:54:44;;;;;;;11.98;6.72;;;;;;;;;;5067814;28;20463;-71
2024/02/29 13:57:11;;;;;;;14.20;6.85;;;;;;;;;;5077262;28;20067;-71
2024/02/29 13:59:37;;;;;;;9.07;6.30;;;;;;;;;;5067934;28;20052;-71
2024/02/29 14:02:04;;;;;;;11.73;6.82;;;;;;;;;;5067052;28;20048;-72
2024/02/29 14:04:31;;;;;;;11.52;7.68;;;;;;;;;;5059845;28;20048;-71
2024/02/29 14:06:57;;;;;;;10.00;6.38;;;;;;;;;;5073304;28;20056;-71
2024/02/29 14:09:23;;;;;;;10.65;6.78;;;;;;;;;;5060536;28;20480;-72
2024/02/29 14:11:50;;;;;;;8.98;6.50;;;;;;;;;;5080739;28;20067;-71
2024/02/29 14:14:16;;;;;;;11.27;6.88;;;;;;;;;;5065243;28;20400;-71
2024/02/29 14:16:43;;;;;;;13.43;6.60;;;;;;;;;;5065153;28;20044;-71
2024/02/29 14:19:09;;;;;;;10.38;6.22;;;;;;;;;;5083588;28;20055;-71
2024/02/29 14:21:36;;;;;;;11.70;6.03;;;;;;;;;;5062401;28;20075;-71
2024/02/29 14:24:03;;;;;;;9.60;6.00;;;;;;;;;;5082243;28;20079;-71
2024/02/29 14:26:29;;;;;;;10.48;6.18;;;;;;;;;;5075346;28;20455;-72
2024/02/29 14:28:57;;;;;;;14.32;6.82;;;;;;;;;;5077022;28;20655;-72
2024/02/29 14:31:24;;;;;;;8.23;5.80;;;;;;;;;;5083220;28;20048;-72